Time;durP1;ratioP1;P1;durP2;ratioP2;P2;SDS_P1;SDS_P2;PMS_P1;PMS_P2;Temp;Humidity;BMP_temperature;BMP_pressure;BME280_temperature;BME280_humidity;BME280_pressure;Samples;Min_cycle;Max_cycle;Signal;HPM_P1;HPM_P2
2022/05/21 00:08:52;;;;;;;28.20;17.80;;;12.50;99.90;;;;;;21221752;27;20031;-59
2022/05/21 00:18:55;;;;;;;25.80;17.60;;;12.50;99.90;;;;;;21218861;27;20064;-59
2022/05/21 00:28:57;;;;;;;22.27;15.13;;;12.50;99.90;;;;;;21219886;27;20391;-54
2022/05/21 00:39:00;;;;;;;25.52;16.85;;;12.50;99.90;;;;;;21219605;27;20035;-59
2022/05/21 00:49:16;;;;;;;25.90;17.77;;;12.50;99.90;;;;;;21217162;27;20459;-54
2022/05/21 01:09:46;;;;;;;28.50;18.30;;;12.50;99.90;;;;;;21167593;27;20035;-54
2022/05/21 01:20:02;;;;;;;26.60;17.95;;;12.50;99.90;;;;;;21179167;27;20031;-54
2022/05/21 01:30:08;;;;;;;28.27;17.85;;;12.50;99.90;;;;;;21156479;27;20032;-59
2022/05/21 01:40:12;;;;;;;33.55;22.05;;;12.40;99.90;;;;;;21200686;27;20108;-59
2022/05/21 01:50:14;;;;;;;26.20;18.65;;;12.50;99.90;;;;;;21211644;27;20055;-53
2022/05/21 02:00:19;;;;;;;28.25;18.88;;;12.40;99.90;;;;;;21212103;27;20043;-53
2022/05/21 02:10:22;;;;;;;34.72;22.77;;;12.10;99.90;;;;;;21207717;27;20464;-59
2022/05/21 02:20:25;;;;;;;34.42;22.40;;;12.00;99.90;;;;;;21212937;27;20035;-59
2022/05/21 02:30:27;;;;;;;38.30;27.65;;;11.90;99.90;;;;;;21212394;28;20107;-52
2022/05/21 02:40:31;;;;;;;36.63;26.40;;;12.00;99.90;;;;;;21212426;28;20496;-55
2022/05/21 02:50:34;;;;;;;33.78;25.00;;;12.10;99.90;;;;;;21134462;28;20044;-51
2022/05/21 03:00:38;;;;;;;33.30;21.27;;;12.30;99.90;;;;;;21074439;28;20040;-53
2022/05/21 03:10:41;;;;;;;33.92;22.63;;;12.20;99.90;;;;;;21096357;28;20061;-53
2022/05/21 03:20:44;;;;;;;35.47;24.77;;;12.00;99.90;;;;;;21077516;28;20554;-52
2022/05/21 03:30:46;;;;;;;32.40;20.75;;;12.00;99.90;;;;;;21092492;28;20035;-51
2022/05/21 03:40:49;;;;;;;39.90;28.88;;;12.00;99.90;;;;;;21105524;28;20435;-50
2022/05/21 03:50:51;;;;;;;38.50;24.73;;;11.80;99.90;;;;;;21127547;27;20565;-54
2022/05/21 04:00:54;;;;;;;41.92;24.42;;;11.80;99.90;;;;;;21212474;27;20039;-55
2022/05/21 04:10:57;;;;;;;32.97;22.08;;;11.90;99.90;;;;;;21141837;27;20032;-54
2022/05/21 04:21:00;;;;;;;39.00;23.75;;;11.80;99.90;;;;;;21184580;27;20399;-53
2022/05/21 04:31:02;;;;;;;38.15;24.23;;;11.80;99.90;;;;;;21141909;27;20043;-53
2022/05/21 04:41:05;;;;;;;36.00;23.42;;;12.00;99.90;;;;;;21203544;27;20039;-55
2022/05/21 04:51:08;;;;;;;29.95;19.98;;;12.30;99.90;;;;;;21156184;27;20047;-59
2022/05/21 05:01:11;;;;;;;24.48;17.92;;;12.70;99.90;;;;;;21211970;27;20031;-53
2022/05/21 05:11:14;;;;;;;23.02;15.90;;;13.20;99.90;;;;;;21173277;27;20035;-54
2022/05/21 05:21:16;;;;;;;22.88;16.33;;;13.60;99.90;;;;;;21172705;27;20103;-59
2022/05/21 05:31:19;;;;;;;25.23;17.48;;;13.70;99.90;;;;;;21171481;27;20031;-55
2022/05/21 05:41:25;;;;;;;23.73;16.27;;;13.90;99.90;;;;;;21154443;27;20031;-59
2022/05/21 05:51:28;;;;;;;21.40;15.68;;;14.10;99.90;;;;;;21170531;27;20051;-53
2022/05/21 06:01:32;;;;;;;29.75;20.27;;;14.30;99.90;;;;;;21188216;27;20048;-59
2022/05/21 06:11:38;;;;;;;17.65;11.45;;;14.50;99.90;;;;;;21169155;27;20027;-59
2022/05/21 06:21:40;;;;;;;13.15;10.27;;;15.00;99.90;;;;;;21148623;27;20080;-60
2022/05/21 06:31:43;;;;;;;18.73;10.00;;;19.20;99.90;;;;;;21138062;28;20036;-60
2022/05/21 06:41:45;;;;;;;12.93;8.70;;;22.20;99.90;;;;;;21174993;28;20396;-60
2022/05/21 06:51:55;;;;;;;11.75;7.13;;;23.80;99.90;;;;;;21164164;27;20039;-60
2022/05/21 07:01:59;;;;;;;8.85;7.50;;;24.80;99.90;;;;;;21172990;27;20076;-58
2022/05/21 07:12:01;;;;;;;9.98;6.97;;;27.20;99.10;;;;;;20980922;28;20083;-61
2022/05/21 07:22:05;;;;;;;11.77;9.55;;;28.40;95.30;;;;;;20964947;28;20082;-59
2022/05/21 07:32:20;;;;;;;10.27;8.83;;;28.60;93.50;;;;;;20964304;28;20060;-58
2022/05/21 07:42:23;;;;;;;8.82;7.93;;;28.70;93.20;;;;;;20943088;28;20690;-63
2022/05/21 07:52:28;;;;;;;11.70;8.97;;;28.20;94.00;;;;;;21057284;28;20480;-64
2022/05/21 08:02:32;;;;;;;10.23;8.90;;;27.90;93.00;;;;;;21179831;27;20086;-63
2022/05/21 08:12:35;;;;;;;10.55;8.27;;;27.70;93.30;;;;;;21162203;27;20455;-63
2022/05/21 08:33:06;;;;;;;8.18;7.10;;;27.00;94.60;;;;;;21158025;27;20500;-58
2022/05/21 08:43:21;;;;;;;14.43;7.53;;;27.00;95.20;;;;;;21188384;27;20377;-64
2022/05/21 08:53:27;;;;;;;8.80;7.43;;;26.90;94.00;;;;;;21204785;27;20065;-64
2022/05/21 09:03:30;;;;;;;8.43;7.60;;;26.30;95.10;;;;;;21205974;27;20179;-64
2022/05/21 09:13:52;;;;;;;9.02;7.55;;;26.60;97.10;;;;;;21215705;27;20101;-65
2022/05/21 09:24:00;;;;;;;8.65;7.75;;;27.20;96.90;;;;;;21204759;27;20084;-64
2022/05/21 09:34:32;;;;;;;9.20;8.13;;;27.10;94.90;;;;;;21210756;27;20057;-64
2022/05/21 09:54:56;;;;;;;11.25;10.15;;;27.10;96.50;;;;;;21173532;27;20446;-64
2022/05/21 10:05:01;;;;;;;12.57;11.27;;;27.10;93.60;;;;;;21215126;27;20039;-64
2022/05/21 10:15:08;;;;;;;12.10;10.60;;;26.90;96.40;;;;;;21191287;27;20442;-58
2022/05/21 10:25:20;;;;;;;14.07;12.13;;;27.00;96.40;;;;;;21208298;27;20047;-65
2022/05/21 10:35:37;;;;;;;13.77;10.07;;;27.10;96.60;;;;;;21184660;28;20069;-64
2022/05/21 10:46:09;;;;;;;14.03;11.80;;;26.20;97.60;;;;;;21189636;28;20051;-64
2022/05/21 10:56:15;;;;;;;14.30;11.30;;;26.70;97.70;;;;;;21163818;28;20039;-64
2022/05/21 11:06:42;;;;;;;13.32;11.98;;;26.90;97.00;;;;;;21184117;28;20206;-64
2022/05/21 11:17:11;;;;;;;13.68;11.57;;;26.40;97.00;;;;;;21201671;28;20095;-63
2022/05/21 11:27:24;;;;;;;16.10;11.35;;;26.40;97.00;;;;;;20865370;28;20041;-64
2022/05/21 11:37:29;;;;;;;11.13;9.82;;;26.90;97.50;;;;;;20873993;28;20106;-65
2022/05/21 11:48:03;;;;;;;12.77;10.57;;;27.10;97.50;;;;;;20879987;28;20130;-65
2022/05/21 11:58:08;;;;;;;15.32;10.25;;;27.10;96.20;;;;;;20876986;28;20085;-65
2022/05/21 12:08:15;;;;;;;11.32;10.10;;;27.30;97.30;;;;;;21182221;27;20476;-66
2022/05/21 12:18:41;;;;;;;11.18;9.43;;;27.40;96.80;;;;;;21148770;27;20104;-68
2022/05/21 12:28:56;;;;;;;10.68;9.50;;;27.30;96.70;;;;;;21199268;27;20035;-67
2022/05/21 12:39:02;;;;;;;18.85;10.23;;;27.20;96.90;;;;;;21175776;27;20423;-65
2022/05/21 12:49:10;;;;;;;13.90;11.23;;;26.80;96.20;;;;;;21199212;27;20496;-65
2022/05/21 12:59:20;;;;;;;12.98;10.45;;;26.10;96.70;;;;;;21157235;27;20085;-56
2022/05/21 13:09:23;;;;;;;16.58;10.45;;;25.40;96.80;;;;;;21155158;27;20463;-66
2022/05/21 13:19:48;;;;;;;12.30;10.57;;;25.50;97.80;;;;;;21200938;27;20031;-66
2022/05/21 13:29:53;;;;;;;12.38;10.50;;;25.80;97.00;;;;;;21155471;27;20036;-67
2022/05/21 13:40:01;;;;;;;14.98;11.73;;;26.40;97.40;;;;;;21171253;27;20043;-65
2022/05/21 13:50:04;;;;;;;11.93;9.88;;;26.20;96.00;;;;;;21181310;27;20391;-65
2022/05/21 14:00:30;;;;;;;12.65;10.18;;;26.40;98.30;;;;;;21159321;27;20179;-59
2022/05/21 14:10:47;;;;;;;12.68;10.75;;;26.60;96.60;;;;;;21157939;27;20081;-65
2022/05/21 14:21:03;;;;;;;14.07;11.38;;;26.60;96.40;;;;;;21146260;27;20035;-64
2022/05/21 14:31:37;;;;;;;12.37;11.17;;;26.80;96.40;;;;;;21201334;28;20039;-58
2022/05/21 14:41:47;;;;;;;16.77;11.82;;;27.20;95.20;;;;;;21158660;28;20416;-64
2022/05/21 15:02:17;;;;;;;13.07;10.48;;;27.20;94.40;;;;;;21178544;28;20031;-63
2022/05/21 15:12:20;;;;;;;15.05;10.13;;;27.10;94.60;;;;;;21213134;27;20036;-63
2022/05/21 15:22:28;;;;;;;13.73;11.45;;;26.80;94.90;;;;;;21153417;27;20039;-64
2022/05/21 15:32:31;;;;;;;16.45;11.25;;;27.10;94.20;;;;;;21172008;27;20039;-63
2022/05/21 15:42:35;;;;;;;14.65;11.52;;;27.30;94.40;;;;;;21218210;27;20095;-58
2022/05/21 15:52:43;;;;;;;13.32;11.30;;;27.40;93.70;;;;;;21157897;27;20032;-63
2022/05/21 16:02:46;;;;;;;12.40;11.10;;;26.90;93.60;;;;;;21180805;27;20088;-63
2022/05/21 16:12:48;;;;;;;20.00;11.52;;;26.00;94.50;;;;;;21184203;27;20039;-57
2022/05/21 16:22:51;;;;;;;15.40;10.55;;;24.00;96.70;;;;;;21182490;27;20036;-62
2022/05/21 16:32:54;;;;;;;19.13;12.60;;;22.90;98.60;;;;;;21173434;27;20035;-61
2022/05/21 16:42:57;;;;;;;12.98;11.30;;;22.00;99.90;;;;;;21184261;27;20047;-61
2022/05/21 16:52:59;;;;;;;19.92;14.27;;;21.00;99.90;;;;;;21154879;27;20039;-53
2022/05/21 17:03:02;;;;;;;15.40;12.75;;;19.90;99.90;;;;;;21195169;27;20039;-53
2022/05/21 17:13:06;;;;;;;18.25;13.85;;;19.10;99.90;;;;;;21166970;27;20044;-60
2022/05/21 17:23:09;;;;;;;21.30;14.93;;;18.50;99.90;;;;;;21184829;27;20027;-52
2022/05/21 17:33:19;;;;;;;21.25;15.13;;;17.90;99.90;;;;;;21145020;27;20036;-60
2022/05/21 17:43:22;;;;;;;23.20;15.40;;;17.30;99.90;;;;;;21158306;27;20051;-60
2022/05/21 17:53:26;;;;;;;26.90;17.60;;;16.90;99.90;;;;;;21156384;27;20036;-60
2022/05/21 18:03:30;;;;;;;24.38;16.33;;;16.60;99.90;;;;;;21163313;27;20088;-59
2022/05/21 18:13:34;;;;;;;24.38;16.73;;;16.30;99.90;;;;;;21173457;27;20105;-60
2022/05/21 18:23:38;;;;;;;30.13;20.13;;;16.00;99.90;;;;;;21171498;27;20081;-53
2022/05/21 18:33:42;;;;;;;32.97;19.95;;;15.70;99.90;;;;;;21133441;28;20028;-59
2022/05/21 18:43:45;;;;;;;36.35;24.38;;;15.50;99.90;;;;;;21203320;27;20124;-59
2022/05/21 18:53:48;;;;;;;26.25;18.67;;;15.30;99.90;;;;;;21213574;27;20046;-55
2022/05/21 19:03:52;;;;;;;26.27;18.38;;;15.20;99.90;;;;;;21216741;27;20572;-61
2022/05/21 19:13:55;;;;;;;31.35;20.42;;;15.10;99.90;;;;;;21224364;27;20134;-51
2022/05/21 19:23:59;;;;;;;35.92;23.98;;;14.90;99.90;;;;;;21234102;27;20418;-60
2022/05/21 19:34:04;;;;;;;36.67;22.90;;;14.70;99.90;;;;;;21205296;27;20267;-60
2022/05/21 19:44:07;;;;;;;35.47;24.02;;;14.60;99.90;;;;;;21216367;27;20076;-60
2022/05/21 19:54:13;;;;;;;37.97;25.70;;;14.40;99.90;;;;;;21153018;27;20088;-60
2022/05/21 20:04:17;;;;;;;32.90;22.73;;;14.30;99.90;;;;;;21182081;27;20036;-60
2022/05/21 20:14:19;;;;;;;43.42;30.75;;;14.30;99.90;;;;;;21174652;27;20039;-60
2022/05/21 20:24:26;;;;;;;41.47;26.60;;;14.30;99.90;;;;;;21176799;27;20036;-53
2022/05/21 20:34:30;;;;;;;40.58;25.23;;;14.20;99.90;;;;;;21187737;27;20031;-59
2022/05/21 20:44:33;;;;;;;39.90;27.75;;;14.30;99.90;;;;;;21174531;27;20134;-55
2022/05/21 20:54:38;;;;;;;36.00;26.08;;;14.30;99.90;;;;;;21196597;27;20378;-59
2022/05/21 21:04:42;;;;;;;32.55;20.55;;;14.20;99.90;;;;;;21212107;27;20027;-52
2022/05/21 21:14:44;;;;;;;38.28;24.88;;;14.20;99.90;;;;;;21213047;27;20031;-50
2022/05/21 21:24:47;;;;;;;31.70;22.02;;;14.20;99.90;;;;;;21196898;27;20115;-56
2022/05/21 21:34:50;;;;;;;38.40;20.13;;;14.00;99.90;;;;;;21200723;27;20039;-60
2022/05/21 21:44:54;;;;;;;35.30;22.35;;;14.10;99.90;;;;;;21205973;27;20104;-60
2022/05/21 21:54:57;;;;;;;28.38;19.85;;;13.90;99.90;;;;;;21150641;27;20096;-60
2022/05/21 22:05:00;;;;;;;25.25;16.80;;;13.80;99.90;;;;;;21176290;27;20442;-55
2022/05/21 22:15:03;;;;;;;27.88;15.68;;;13.70;99.90;;;;;;21157245;27;20035;-60
2022/05/21 22:25:06;;;;;;;17.10;13.07;;;13.60;99.90;;;;;;21143734;27;20027;-59
2022/05/21 22:35:10;;;;;;;22.85;15.20;;;13.50;99.90;;;;;;21118034;28;20613;-59
2022/05/21 22:45:13;;;;;;;23.42;13.38;;;13.50;99.90;;;;;;21147958;28;20119;-59
2022/05/21 22:55:21;;;;;;;21.10;13.80;;;13.40;99.90;;;;;;21172142;28;20081;-59
2022/05/21 23:05:24;;;;;;;24.63;17.73;;;13.30;99.90;;;;;;21188240;28;20039;-60
2022/05/21 23:25:48;;;;;;;20.67;13.20;;;13.20;99.90;;;;;;21164064;28;20085;-59
2022/05/21 23:35:54;;;;;;;26.50;14.50;;;13.10;99.90;;;;;;21195048;27;20043;-59
2022/05/21 23:45:56;;;;;;;33.08;21.58;;;13.10;99.90;;;;;;21173057;27;20070;-58
2022/05/21 23:55:59;;;;;;;27.63;18.85;;;13.20;99.90;;;;;;21178813;27;20024;-58
